ADDS METAR Data INFO
IDs: Format: Raw Decoded Include TAF

Data at: 2037 UTC 16 Dec 2017

KAJO 161956Z AUTO 00000KT 10SM FEW120 19/M01 A2970 RMK AO2 SLP068 T01891011
KAJO 161856Z AUTO 09004KT 10SM CLR 17/M01 A2972 RMK AO2 SLP076 T01721011
KAJO 161756Z AUTO 10010KT 10SM CLR 16/01 A2975 RMK AO2 SLP086 6//// T01610011 10161 20039 58008
KAJO 161656Z AUTO 17005KT 10SM CLR 13/M01 A2976 RMK AO2 SLP091 T01281006
KAJO 161556Z AUTO 11003KT 10SM CLR 07/M01 A2977 RMK AO2 SLP093 T00721011
KAJO 161456Z AUTO 24004KT 10SM FEW110 08/M02 A2977 RMK AO2 RAB13E28 SLP096 P0000 6//// T00831017
KAJO 161356Z AUTO 08005KT 10SM CLR 10/M05 RMK AO2 SLPNO T01001050 $
KAJO 161256Z AUTO 00000KT 10SM CLR 06/M01 A2980 RMK AO2 SLP102 T00611006
KAJO 161156Z AUTO 23003KT 10SM CLR 06/M01 A2982 RMK AO2 SLP110 T00561006 10089 20033 58029
KAJO 161056Z AUTO 00000KT 10SM CLR 04/M04 A2986 RMK AO2 PRESFR SLP121 T00441044
KAJO 160956Z AUTO 00000KT 10SM CLR 06/M03 A2990 RMK AO2 SLP133 T00561033
KAJO 160856Z AUTO 00000KT 10SM CLR 07/M03 A2991 RMK AO2 SLP138 T00671028 58022
KAJO 160756Z AUTO 00000KT 10SM CLR 07/M04 A2994 RMK AO2 SLP148 T00671039 402780056
KAJO 160656Z AUTO 00000KT 10SM CLR 07/M04 A2997 RMK AO2 SLP158 T00721044
KAJO 160556Z AUTO 00000KT 10SM CLR 09/M03 A2998 RMK AO2 SLP161 T00891033 10250 20083 56008
KAJO 160456Z AUTO 00000KT 10SM CLR 09/M06 A2999 RMK AO2 SLP167 T00941056
KAJO 160356Z AUTO 00000KT 10SM CLR 11/M07 A2999 RMK AO2 SLP170 T01061067
KAJO 160256Z AUTO 00000KT 10SM CLR 13/M07 A3000 RMK AO2 SLP173 T01281067 58003
KAJO 160156Z AUTO 00000KT 10SM CLR 16/M06 A3000 RMK AO2 SLP171 T01611056
KAJO 160056Z AUTO 27004KT 10SM CLR 22/M05 A3001 RMK AO2 SLP171 T02171050
KAJO 152356Z AUTO 26007KT 10SM CLR 25/M06 A3001 RMK AO2 SLP169 T02501061 10278 20217 56017
KAJO 152256Z AUTO 26008KT 10SM CLR 27/M08 A3002 RMK AO2 SLP171 T02671083
KAJO 152156Z AUTO 26006KT 10SM CLR 27/M11 A3003 RMK AO2 SLP176 T02721111
KAJO 152056Z AUTO 00000KT 10SM CLR 27/M12 A3006 RMK AO2 SLP184 T02721122 58035
KAJO 151956Z AUTO 00000KT 10SM CLR 27/M12 A3010 RMK AO2 SLP197 T02721117
KAJO 151856Z AUTO 07004KT 10SM CLR 26/M09 A3014 RMK AO2 SLP212 T02561094
KAJO 151756Z AUTO 05004KT 10SM CLR 22/M07 A3017 RMK AO2 SLP221 T02171067 10217 20067 50009
KAJO 151656Z AUTO 35006KT 10SM CLR 16/M06 A3017 RMK AO2 SLP224 T01611061
KAJO 151556Z AUTO 00000KT 10SM CLR 10/M05 A3016 RMK AO2 SLP224 T01001050
KAJO 151456Z AUTO 00000KT 10SM CLR 09/M06 A3014 RMK AO2 SLP217 T00891061 51007
KAJO 151356Z AUTO 10007KT 10SM CLR 14/M09 A3013 RMK AO2 SLP212 T01391094
KAJO 151256Z AUTO 10009KT 10SM CLR 13/M09 A3013 RMK AO2 SLP210 T01331094
KAJO 151056Z AUTO 13009KT 10SM CLR 15/M09 A3013 RMK AO2 SLP208 T01501094
KAJO 150956Z AUTO 10008KT 10SM CLR 16/M09 A3013 RMK AO2 SLP208 T01561089
KAJO 150856Z AUTO 11009KT 080V140 10SM CLR 20/M10 A3013 RMK AO2 SLP206 T02001100 51012